map of ABD home
ABD - Airport
Location
City:  Abadan, Khuzestan, Iran
ICAO:OIAA
IATA:ABD

Details
Type:Airport (Aerodrome, Airfield)
Use:Public/Civil
Latitude:3021'54"N (30.365000)
Longitude:4813'59"E (48.233056)
Elevation:19 ft (6 m)
Variation:3.71E (WMM2015 magnetic declination)
0.05 annual change
Runways:2
Longest:10174 × 148 ft (3101 × 45 m), paved

Time
Time Zone:UTC+3:30 (DST+4:30)
Local Time:

Weather
METAR:OIAA 161200Z 34010KT CAVOK 21/04 Q1018
TAF:OIAA 161110Z 1612/1718 34005MPS 8000 NSC= TAF OIBK 161110Z 1612/1718 08004MPS 6000 FEW025
BECMG 1615/1617 31005MPS
TEMPO 1618/1703 4000 HZ/BR

Related Locations
Nearby:
Farthest:GMR: 11895 mi / 19143 km
Mangareva [Totegegie], Gambier Islands, PF

Find:

   beyond  
but within

Other Information
Maps:
NOTAMs:
Links:
Sources:

  
flag of Iran   

Sectional Chart

Flight Planning
at skyvector.com

Satellite Image

Google Maps Satellite view

 

Copyright © 2004-2017 Karl L. Swartz. All rights reserved.
The Great Circle Mapper name and logo are trademarks of the Great Circle Mapper.
All other trademarks mentioned herein belong to their respective owners.
Please see credits for attibutions and further copyright information.

  Follow gcmap on Facebook Follow gcmap on Twitter Follow gcmap on Google+ GCmap on LinkedIn

hCard Microformat

Geo Microformat